sensor_id;sensor_type;location;lat;lon;timestamp;P1;durP1;ratioP1;P2;durP2;ratioP2
14526;SDS011;7350;51.208;4.238;2022-12-18T00:02:15;53.17;;;24.90;;
14526;SDS011;7350;51.208;4.238;2022-12-18T00:04:42;55.73;;;25.27;;
14526;SDS011;7350;51.208;4.238;2022-12-18T00:07:10;54.73;;;23.47;;
14526;SDS011;7350;51.208;4.238;2022-12-18T00:09:37;52.43;;;23.73;;
14526;SDS011;7350;51.208;4.238;2022-12-18T00:12:04;52.63;;;23.90;;
14526;SDS011;7350;51.208;4.238;2022-12-18T00:14:31;54.17;;;25.10;;
14526;SDS011;7350;51.208;4.238;2022-12-18T00:16:59;57.03;;;24.30;;
14526;SDS011;7350;51.208;4.238;2022-12-18T00:19:26;51.27;;;23.83;;
14526;SDS011;7350;51.208;4.238;2022-12-18T00:21:53;56.23;;;25.43;;
14526;SDS011;7350;51.208;4.238;2022-12-18T00:24:20;53.07;;;23.93;;
14526;SDS011;7350;51.208;4.238;2022-12-18T00:26:47;56.23;;;25.23;;
14526;SDS011;7350;51.208;4.238;2022-12-18T00:29:14;55.13;;;26.57;;
14526;SDS011;7350;51.208;4.238;2022-12-18T00:31:42;55.13;;;25.20;;
14526;SDS011;7350;51.208;4.238;2022-12-18T00:34:11;52.13;;;25.63;;
14526;SDS011;7350;51.208;4.238;2022-12-18T00:36:38;56.47;;;24.40;;
14526;SDS011;7350;51.208;4.238;2022-12-18T00:39:06;54.17;;;25.73;;
14526;SDS011;7350;51.208;4.238;2022-12-18T00:41:33;51.40;;;24.30;;
14526;SDS011;7350;51.208;4.238;2022-12-18T00:44:18;58.13;;;25.13;;
14526;SDS011;7350;51.208;4.238;2022-12-18T00:46:45;60.23;;;26.10;;
14526;SDS011;7350;51.208;4.238;2022-12-18T00:49:15;55.67;;;24.57;;
14526;SDS011;7350;51.208;4.238;2022-12-18T00:51:43;49.63;;;24.73;;
14526;SDS011;7350;51.208;4.238;2022-12-18T00:54:10;61.17;;;26.23;;
14526;SDS011;7350;51.208;4.238;2022-12-18T00:56:39;57.53;;;25.17;;
14526;SDS011;7350;51.208;4.238;2022-12-18T00:59:06;62.93;;;26.13;;
14526;SDS011;7350;51.208;4.238;2022-12-18T01:01:33;58.63;;;25.67;;
14526;SDS011;7350;51.208;4.238;2022-12-18T01:04:01;55.73;;;25.97;;
14526;SDS011;7350;51.208;4.238;2022-12-18T01:06:30;62.47;;;27.63;;
14526;SDS011;7350;51.208;4.238;2022-12-18T01:08:57;57.83;;;25.87;;
14526;SDS011;7350;51.208;4.238;2022-12-18T01:11:24;61.13;;;26.30;;
14526;SDS011;7350;51.208;4.238;2022-12-18T01:13:51;60.63;;;26.60;;
14526;SDS011;7350;51.208;4.238;2022-12-18T01:16:19;57.90;;;26.83;;
14526;SDS011;7350;51.208;4.238;2022-12-18T01:18:46;56.57;;;25.80;;
14526;SDS011;7350;51.208;4.238;2022-12-18T01:21:14;63.50;;;25.50;;
14526;SDS011;7350;51.208;4.238;2022-12-18T01:23:43;63.47;;;28.57;;
14526;SDS011;7350;51.208;4.238;2022-12-18T01:26:10;68.17;;;28.53;;
14526;SDS011;7350;51.208;4.238;2022-12-18T01:28:39;57.00;;;26.33;;
14526;SDS011;7350;51.208;4.238;2022-12-18T01:31:10;61.60;;;28.00;;
14526;SDS011;7350;51.208;4.238;2022-12-18T01:33:42;66.03;;;29.00;;
14526;SDS011;7350;51.208;4.238;2022-12-18T01:36:14;67.97;;;30.47;;
14526;SDS011;7350;51.208;4.238;2022-12-18T01:38:43;67.33;;;30.10;;
14526;SDS011;7350;51.208;4.238;2022-12-18T01:41:11;64.00;;;29.23;;
14526;SDS011;7350;51.208;4.238;2022-12-18T01:43:45;61.47;;;28.33;;
14526;SDS011;7350;51.208;4.238;2022-12-18T01:46:14;61.30;;;27.03;;
14526;SDS011;7350;51.208;4.238;2022-12-18T01:48:42;66.97;;;28.27;;
14526;SDS011;7350;51.208;4.238;2022-12-18T01:51:13;66.13;;;29.17;;
14526;SDS011;7350;51.208;4.238;2022-12-18T01:53:40;74.30;;;31.13;;
14526;SDS011;7350;51.208;4.238;2022-12-18T01:56:11;65.47;;;30.83;;
14526;SDS011;7350;51.208;4.238;2022-12-18T01:58:41;60.93;;;28.90;;
14526;SDS011;7350;51.208;4.238;2022-12-18T02:01:14;64.17;;;28.67;;
14526;SDS011;7350;51.208;4.238;2022-12-18T02:03:42;71.30;;;30.07;;
14526;SDS011;7350;51.208;4.238;2022-12-18T02:06:11;69.00;;;31.13;;
14526;SDS011;7350;51.208;4.238;2022-12-18T02:08:44;65.20;;;30.43;;
14526;SDS011;7350;51.208;4.238;2022-12-18T02:11:23;59.60;;;28.37;;
14526;SDS011;7350;51.208;4.238;2022-12-18T02:14:00;67.00;;;28.60;;
14526;SDS011;7350;51.208;4.238;2022-12-18T02:16:39;69.67;;;31.10;;
14526;SDS011;7350;51.208;4.238;2022-12-18T02:19:15;54.63;;;24.83;;
14526;SDS011;7350;51.208;4.238;2022-12-18T02:21:54;61.37;;;27.23;;
14526;SDS011;7350;51.208;4.238;2022-12-18T02:24:26;61.67;;;26.20;;
14526;SDS011;7350;51.208;4.238;2022-12-18T02:26:59;53.73;;;25.40;;
14526;SDS011;7350;51.208;4.238;2022-12-18T02:29:29;68.17;;;28.50;;
14526;SDS011;7350;51.208;4.238;2022-12-18T02:32:00;56.73;;;26.47;;
14526;SDS011;7350;51.208;4.238;2022-12-18T02:34:31;56.90;;;24.13;;
14526;SDS011;7350;51.208;4.238;2022-12-18T02:37:01;50.23;;;24.10;;
14526;SDS011;7350;51.208;4.238;2022-12-18T02:39:33;60.20;;;25.37;;
14526;SDS011;7350;51.208;4.238;2022-12-18T02:42:02;51.67;;;24.97;;
14526;SDS011;7350;51.208;4.238;2022-12-18T02:44:33;53.73;;;24.77;;
14526;SDS011;7350;51.208;4.238;2022-12-18T02:47:00;56.10;;;24.97;;
14526;SDS011;7350;51.208;4.238;2022-12-18T02:49:32;55.23;;;24.43;;
14526;SDS011;7350;51.208;4.238;2022-12-18T02:52:07;54.47;;;25.03;;
14526;SDS011;7350;51.208;4.238;2022-12-18T02:54:49;52.73;;;23.47;;
14526;SDS011;7350;51.208;4.238;2022-12-18T02:57:27;51.57;;;24.37;;
14526;SDS011;7350;51.208;4.238;2022-12-18T03:00:01;50.03;;;24.13;;
14526;SDS011;7350;51.208;4.238;2022-12-18T03:02:34;51.13;;;23.73;;
14526;SDS011;7350;51.208;4.238;2022-12-18T03:05:07;52.63;;;25.03;;
14526;SDS011;7350;51.208;4.238;2022-12-18T03:07:39;51.30;;;23.40;;
14526;SDS011;7350;51.208;4.238;2022-12-18T03:10:11;48.60;;;22.23;;
14526;SDS011;7350;51.208;4.238;2022-12-18T03:12:44;52.60;;;24.97;;
14526;SDS011;7350;51.208;4.238;2022-12-18T03:15:18;49.77;;;23.20;;
14526;SDS011;7350;51.208;4.238;2022-12-18T03:17:50;50.50;;;23.80;;
14526;SDS011;7350;51.208;4.238;2022-12-18T03:20:21;50.07;;;22.60;;
14526;SDS011;7350;51.208;4.238;2022-12-18T03:22:50;47.97;;;22.13;;
14526;SDS011;7350;51.208;4.238;2022-12-18T03:25:20;42.93;;;21.90;;
14526;SDS011;7350;51.208;4.238;2022-12-18T03:27:51;48.50;;;22.17;;
14526;SDS011;7350;51.208;4.238;2022-12-18T03:30:21;45.87;;;22.30;;
14526;SDS011;7350;51.208;4.238;2022-12-18T03:32:49;43.63;;;23.03;;
14526;SDS011;7350;51.208;4.238;2022-12-18T03:35:24;48.93;;;23.10;;
14526;SDS011;7350;51.208;4.238;2022-12-18T03:37:54;46.10;;;22.30;;
14526;SDS011;7350;51.208;4.238;2022-12-18T03:40:23;50.53;;;21.67;;
14526;SDS011;7350;51.208;4.238;2022-12-18T03:42:57;52.27;;;22.23;;
14526;SDS011;7350;51.208;4.238;2022-12-18T03:45:30;48.43;;;22.50;;
14526;SDS011;7350;51.208;4.238;2022-12-18T03:48:01;49.87;;;22.40;;
14526;SDS011;7350;51.208;4.238;2022-12-18T03:50:37;48.40;;;22.63;;
14526;SDS011;7350;51.208;4.238;2022-12-18T03:53:17;47.40;;;21.10;;
14526;SDS011;7350;51.208;4.238;2022-12-18T03:55:52;43.57;;;22.10;;
14526;SDS011;7350;51.208;4.238;2022-12-18T03:58:24;42.60;;;21.23;;
14526;SDS011;7350;51.208;4.238;2022-12-18T04:00:53;39.83;;;19.70;;
14526;SDS011;7350;51.208;4.238;2022-12-18T04:03:23;37.10;;;19.50;;
14526;SDS011;7350;51.208;4.238;2022-12-18T04:05:50;37.27;;;19.10;;
14526;SDS011;7350;51.208;4.238;2022-12-18T04:08:19;40.93;;;19.93;;
14526;SDS011;7350;51.208;4.238;2022-12-18T04:10:46;41.47;;;20.27;;
14526;SDS011;7350;51.208;4.238;2022-12-18T04:13:21;39.30;;;19.17;;
14526;SDS011;7350;51.208;4.238;2022-12-18T04:15:50;41.20;;;19.47;;
14526;SDS011;7350;51.208;4.238;2022-12-18T04:18:17;36.77;;;18.00;;
14526;SDS011;7350;51.208;4.238;2022-12-18T04:20:44;37.37;;;18.27;;
14526;SDS011;7350;51.208;4.238;2022-12-18T04:23:11;41.23;;;19.23;;
14526;SDS011;7350;51.208;4.238;2022-12-18T04:25:38;38.07;;;19.10;;
14526;SDS011;7350;51.208;4.238;2022-12-18T04:28:05;38.50;;;19.37;;
14526;SDS011;7350;51.208;4.238;2022-12-18T04:30:34;43.03;;;20.40;;
14526;SDS011;7350;51.208;4.238;2022-12-18T04:33:01;41.00;;;20.13;;
14526;SDS011;7350;51.208;4.238;2022-12-18T04:35:28;40.27;;;19.10;;
14526;SDS011;7350;51.208;4.238;2022-12-18T04:37:55;33.07;;;19.57;;
14526;SDS011;7350;51.208;4.238;2022-12-18T04:40:22;38.37;;;18.43;;
14526;SDS011;7350;51.208;4.238;2022-12-18T04:42:49;40.10;;;19.20;;
14526;SDS011;7350;51.208;4.238;2022-12-18T04:45:16;38.73;;;17.93;;
14526;SDS011;7350;51.208;4.238;2022-12-18T04:47:44;38.80;;;18.17;;
14526;SDS011;7350;51.208;4.238;2022-12-18T04:50:11;34.97;;;18.60;;
14526;SDS011;7350;51.208;4.238;2022-12-18T04:52:38;36.23;;;19.13;;
14526;SDS011;7350;51.208;4.238;2022-12-18T04:55:05;38.17;;;18.90;;
14526;SDS011;7350;51.208;4.238;2022-12-18T04:57:32;34.07;;;18.07;;
14526;SDS011;7350;51.208;4.238;2022-12-18T04:59:59;36.93;;;19.00;;
14526;SDS011;7350;51.208;4.238;2022-12-18T05:02:26;39.73;;;19.10;;
14526;SDS011;7350;51.208;4.238;2022-12-18T05:04:54;41.53;;;20.23;;
14526;SDS011;7350;51.208;4.238;2022-12-18T05:07:21;34.17;;;17.07;;
14526;SDS011;7350;51.208;4.238;2022-12-18T05:09:48;36.67;;;18.83;;
14526;SDS011;7350;51.208;4.238;2022-12-18T05:12:15;42.40;;;20.20;;
14526;SDS011;7350;51.208;4.238;2022-12-18T05:14:42;41.43;;;18.43;;
14526;SDS011;7350;51.208;4.238;2022-12-18T05:17:09;34.37;;;18.23;;
14526;SDS011;7350;51.208;4.238;2022-12-18T05:19:36;39.67;;;18.13;;
14526;SDS011;7350;51.208;4.238;2022-12-18T05:22:06;34.33;;;17.60;;
14526;SDS011;7350;51.208;4.238;2022-12-18T05:24:33;35.83;;;17.37;;
14526;SDS011;7350;51.208;4.238;2022-12-18T05:27:00;33.67;;;17.30;;
14526;SDS011;7350;51.208;4.238;2022-12-18T05:29:27;33.57;;;16.63;;
14526;SDS011;7350;51.208;4.238;2022-12-18T05:31:54;35.47;;;17.40;;
14526;SDS011;7350;51.208;4.238;2022-12-18T05:34:21;33.33;;;16.60;;
14526;SDS011;7350;51.208;4.238;2022-12-18T05:36:48;30.40;;;14.77;;
14526;SDS011;7350;51.208;4.238;2022-12-18T05:39:17;31.23;;;16.73;;
14526;SDS011;7350;51.208;4.238;2022-12-18T05:41:43;32.67;;;16.10;;
14526;SDS011;7350;51.208;4.238;2022-12-18T05:44:10;30.13;;;16.73;;
14526;SDS011;7350;51.208;4.238;2022-12-18T05:46:37;30.80;;;15.97;;
14526;SDS011;7350;51.208;4.238;2022-12-18T05:49:07;29.40;;;15.30;;
14526;SDS011;7350;51.208;4.238;2022-12-18T05:51:34;31.87;;;16.00;;
14526;SDS011;7350;51.208;4.238;2022-12-18T05:54:01;31.73;;;15.73;;
14526;SDS011;7350;51.208;4.238;2022-12-18T05:56:29;32.63;;;16.50;;
14526;SDS011;7350;51.208;4.238;2022-12-18T05:58:56;32.43;;;16.17;;
14526;SDS011;7350;51.208;4.238;2022-12-18T06:01:25;31.90;;;16.87;;
14526;SDS011;7350;51.208;4.238;2022-12-18T06:03:53;34.17;;;16.60;;
14526;SDS011;7350;51.208;4.238;2022-12-18T06:06:21;33.53;;;16.53;;
14526;SDS011;7350;51.208;4.238;2022-12-18T06:08:50;30.90;;;15.73;;
14526;SDS011;7350;51.208;4.238;2022-12-18T06:11:18;36.97;;;17.30;;
14526;SDS011;7350;51.208;4.238;2022-12-18T06:13:50;30.13;;;15.53;;
14526;SDS011;7350;51.208;4.238;2022-12-18T06:16:17;31.10;;;16.33;;
14526;SDS011;7350;51.208;4.238;2022-12-18T06:18:44;32.67;;;16.17;;
14526;SDS011;7350;51.208;4.238;2022-12-18T06:21:12;34.00;;;16.70;;
14526;SDS011;7350;51.208;4.238;2022-12-18T06:23:39;30.50;;;15.97;;
14526;SDS011;7350;51.208;4.238;2022-12-18T06:26:07;33.80;;;16.37;;
14526;SDS011;7350;51.208;4.238;2022-12-18T06:28:36;32.83;;;17.37;;
14526;SDS011;7350;51.208;4.238;2022-12-18T06:31:05;31.03;;;15.73;;
14526;SDS011;7350;51.208;4.238;2022-12-18T06:33:33;30.80;;;16.00;;
14526;SDS011;7350;51.208;4.238;2022-12-18T06:36:01;34.37;;;15.63;;
14526;SDS011;7350;51.208;4.238;2022-12-18T06:38:30;30.00;;;16.07;;
14526;SDS011;7350;51.208;4.238;2022-12-18T06:40:57;35.70;;;16.20;;
14526;SDS011;7350;51.208;4.238;2022-12-18T06:43:24;30.07;;;15.87;;
14526;SDS011;7350;51.208;4.238;2022-12-18T06:45:57;31.50;;;16.47;;
14526;SDS011;7350;51.208;4.238;2022-12-18T06:48:26;31.53;;;16.40;;
14526;SDS011;7350;51.208;4.238;2022-12-18T06:50:53;35.00;;;16.40;;
14526;SDS011;7350;51.208;4.238;2022-12-18T06:53:20;31.37;;;17.03;;
14526;SDS011;7350;51.208;4.238;2022-12-18T06:55:47;31.07;;;16.20;;
14526;SDS011;7350;51.208;4.238;2022-12-18T06:58:14;32.00;;;16.90;;
14526;SDS011;7350;51.208;4.238;2022-12-18T07:00:42;30.07;;;15.40;;
14526;SDS011;7350;51.208;4.238;2022-12-18T07:03:10;30.60;;;15.13;;
14526;SDS011;7350;51.208;4.238;2022-12-18T07:05:40;35.40;;;15.13;;
14526;SDS011;7350;51.208;4.238;2022-12-18T07:08:07;33.63;;;15.43;;
14526;SDS011;7350;51.208;4.238;2022-12-18T07:10:40;32.63;;;16.53;;
14526;SDS011;7350;51.208;4.238;2022-12-18T07:13:08;30.63;;;14.47;;
14526;SDS011;7350;51.208;4.238;2022-12-18T07:15:35;28.90;;;15.43;;
14526;SDS011;7350;51.208;4.238;2022-12-18T07:18:02;29.80;;;16.00;;
14526;SDS011;7350;51.208;4.238;2022-12-18T07:20:29;28.43;;;14.63;;
14526;SDS011;7350;51.208;4.238;2022-12-18T07:22:57;29.67;;;15.60;;
14526;SDS011;7350;51.208;4.238;2022-12-18T07:25:24;35.80;;;18.23;;
14526;SDS011;7350;51.208;4.238;2022-12-18T07:27:51;29.70;;;15.23;;
14526;SDS011;7350;51.208;4.238;2022-12-18T07:30:19;26.27;;;14.83;;
14526;SDS011;7350;51.208;4.238;2022-12-18T07:32:46;28.73;;;15.03;;
14526;SDS011;7350;51.208;4.238;2022-12-18T07:35:13;25.60;;;13.80;;
14526;SDS011;7350;51.208;4.238;2022-12-18T07:37:40;27.20;;;13.77;;
14526;SDS011;7350;51.208;4.238;2022-12-18T07:40:09;24.83;;;13.03;;
14526;SDS011;7350;51.208;4.238;2022-12-18T07:42:37;26.57;;;14.77;;
14526;SDS011;7350;51.208;4.238;2022-12-18T07:45:04;27.70;;;14.43;;
14526;SDS011;7350;51.208;4.238;2022-12-18T07:47:33;28.20;;;14.50;;
14526;SDS011;7350;51.208;4.238;2022-12-18T07:50:01;31.43;;;16.37;;
14526;SDS011;7350;51.208;4.238;2022-12-18T07:52:28;34.30;;;20.27;;
14526;SDS011;7350;51.208;4.238;2022-12-18T07:54:55;39.63;;;23.23;;
14526;SDS011;7350;51.208;4.238;2022-12-18T07:57:24;44.00;;;25.40;;
14526;SDS011;7350;51.208;4.238;2022-12-18T07:59:51;45.27;;;25.57;;
14526;SDS011;7350;51.208;4.238;2022-12-18T08:02:18;37.23;;;23.47;;
14526;SDS011;7350;51.208;4.238;2022-12-18T08:04:45;30.60;;;18.07;;
14526;SDS011;7350;51.208;4.238;2022-12-18T08:07:12;25.73;;;14.27;;
14526;SDS011;7350;51.208;4.238;2022-12-18T08:09:39;27.87;;;15.17;;
14526;SDS011;7350;51.208;4.238;2022-12-18T08:12:06;29.07;;;15.60;;
14526;SDS011;7350;51.208;4.238;2022-12-18T08:14:34;23.43;;;12.70;;
14526;SDS011;7350;51.208;4.238;2022-12-18T08:17:02;25.70;;;14.13;;
14526;SDS011;7350;51.208;4.238;2022-12-18T08:19:29;24.83;;;12.67;;
14526;SDS011;7350;51.208;4.238;2022-12-18T08:21:56;21.80;;;11.53;;
14526;SDS011;7350;51.208;4.238;2022-12-18T08:24:23;24.67;;;12.37;;
14526;SDS011;7350;51.208;4.238;2022-12-18T08:26:50;24.97;;;12.67;;
14526;SDS011;7350;51.208;4.238;2022-12-18T08:29:26;21.43;;;12.40;;
14526;SDS011;7350;51.208;4.238;2022-12-18T08:31:55;23.17;;;12.00;;
14526;SDS011;7350;51.208;4.238;2022-12-18T08:34:22;25.37;;;12.40;;
14526;SDS011;7350;51.208;4.238;2022-12-18T08:36:49;22.77;;;12.37;;
14526;SDS011;7350;51.208;4.238;2022-12-18T08:39:16;24.33;;;12.20;;
14526;SDS011;7350;51.208;4.238;2022-12-18T08:41:43;18.93;;;12.17;;
14526;SDS011;7350;51.208;4.238;2022-12-18T08:44:30;24.63;;;13.47;;
14526;SDS011;7350;51.208;4.238;2022-12-18T08:47:06;29.43;;;14.93;;
14526;SDS011;7350;51.208;4.238;2022-12-18T08:49:34;24.60;;;14.17;;
14526;SDS011;7350;51.208;4.238;2022-12-18T08:52:01;21.77;;;12.33;;
14526;SDS011;7350;51.208;4.238;2022-12-18T08:54:28;18.47;;;11.13;;
14526;SDS011;7350;51.208;4.238;2022-12-18T08:56:56;20.17;;;11.57;;
14526;SDS011;7350;51.208;4.238;2022-12-18T08:59:23;20.77;;;10.80;;
14526;SDS011;7350;51.208;4.238;2022-12-18T09:01:50;19.20;;;11.23;;
14526;SDS011;7350;51.208;4.238;2022-12-18T09:04:20;20.70;;;11.67;;
14526;SDS011;7350;51.208;4.238;2022-12-18T09:06:47;21.83;;;12.47;;
14526;SDS011;7350;51.208;4.238;2022-12-18T09:09:14;21.17;;;11.50;;
14526;SDS011;7350;51.208;4.238;2022-12-18T09:11:41;19.90;;;11.47;;
14526;SDS011;7350;51.208;4.238;2022-12-18T09:14:09;20.03;;;11.23;;
14526;SDS011;7350;51.208;4.238;2022-12-18T09:16:36;20.80;;;11.83;;
14526;SDS011;7350;51.208;4.238;2022-12-18T09:19:04;19.13;;;11.40;;
14526;SDS011;7350;51.208;4.238;2022-12-18T09:21:33;18.17;;;11.83;;
14526;SDS011;7350;51.208;4.238;2022-12-18T09:24:05;18.07;;;11.43;;
14526;SDS011;7350;51.208;4.238;2022-12-18T09:26:32;20.27;;;10.83;;
14526;SDS011;7350;51.208;4.238;2022-12-18T09:28:59;19.37;;;11.40;;
14526;SDS011;7350;51.208;4.238;2022-12-18T09:31:26;17.63;;;9.87;;
14526;SDS011;7350;51.208;4.238;2022-12-18T09:33:54;17.20;;;10.40;;
14526;SDS011;7350;51.208;4.238;2022-12-18T09:36:21;16.17;;;10.27;;
14526;SDS011;7350;51.208;4.238;2022-12-18T09:38:50;19.07;;;10.57;;
14526;SDS011;7350;51.208;4.238;2022-12-18T09:41:23;17.47;;;9.73;;
14526;SDS011;7350;51.208;4.238;2022-12-18T09:44:00;15.37;;;9.97;;
14526;SDS011;7350;51.208;4.238;2022-12-18T09:46:32;17.83;;;10.53;;
14526;SDS011;7350;51.208;4.238;2022-12-18T09:49:03;22.97;;;11.10;;
14526;SDS011;7350;51.208;4.238;2022-12-18T09:51:35;20.83;;;11.13;;
14526;SDS011;7350;51.208;4.238;2022-12-18T09:54:11;17.50;;;9.80;;
14526;SDS011;7350;51.208;4.238;2022-12-18T09:56:41;20.23;;;11.20;;
14526;SDS011;7350;51.208;4.238;2022-12-18T09:59:14;19.37;;;11.00;;
14526;SDS011;7350;51.208;4.238;2022-12-18T10:01:46;18.67;;;10.10;;
14526;SDS011;7350;51.208;4.238;2022-12-18T10:04:13;15.60;;;9.83;;
14526;SDS011;7350;51.208;4.238;2022-12-18T10:06:42;20.90;;;11.33;;
14526;SDS011;7350;51.208;4.238;2022-12-18T10:09:18;21.27;;;11.50;;
14526;SDS011;7350;51.208;4.238;2022-12-18T10:11:54;18.40;;;11.63;;
14526;SDS011;7350;51.208;4.238;2022-12-18T10:14:30;18.07;;;10.47;;
14526;SDS011;7350;51.208;4.238;2022-12-18T10:17:07;17.43;;;10.47;;
14526;SDS011;7350;51.208;4.238;2022-12-18T10:19:45;15.90;;;9.47;;
14526;SDS011;7350;51.208;4.238;2022-12-18T10:22:29;17.30;;;10.77;;
14526;SDS011;7350;51.208;4.238;2022-12-18T10:25:12;18.57;;;9.60;;
14526;SDS011;7350;51.208;4.238;2022-12-18T10:27:46;21.97;;;12.40;;
14526;SDS011;7350;51.208;4.238;2022-12-18T10:30:18;18.93;;;11.57;;
14526;SDS011;7350;51.208;4.238;2022-12-18T10:32:46;18.37;;;11.20;;
14526;SDS011;7350;51.208;4.238;2022-12-18T10:35:15;19.33;;;11.33;;
14526;SDS011;7350;51.208;4.238;2022-12-18T10:40:52;16.60;;;10.27;;
14526;SDS011;7350;51.208;4.238;2022-12-18T10:43:21;17.23;;;10.53;;
14526;SDS011;7350;51.208;4.238;2022-12-18T10:46:01;18.23;;;10.67;;
14526;SDS011;7350;51.208;4.238;2022-12-18T10:48:31;18.07;;;10.60;;
14526;SDS011;7350;51.208;4.238;2022-12-18T10:51:01;17.23;;;9.83;;
14526;SDS011;7350;51.208;4.238;2022-12-18T10:53:29;19.47;;;11.33;;
14526;SDS011;7350;51.208;4.238;2022-12-18T10:56:00;17.00;;;10.20;;
14526;SDS011;7350;51.208;4.238;2022-12-18T10:58:31;17.90;;;10.53;;
14526;SDS011;7350;51.208;4.238;2022-12-18T11:01:06;15.53;;;10.03;;
14526;SDS011;7350;51.208;4.238;2022-12-18T11:03:36;18.47;;;10.10;;
14526;SDS011;7350;51.208;4.238;2022-12-18T11:06:05;17.70;;;10.80;;
14526;SDS011;7350;51.208;4.238;2022-12-18T11:08:34;20.10;;;11.50;;
14526;SDS011;7350;51.208;4.238;2022-12-18T11:11:03;17.27;;;11.03;;
14526;SDS011;7350;51.208;4.238;2022-12-18T11:13:33;18.13;;;11.17;;
14526;SDS011;7350;51.208;4.238;2022-12-18T11:16:00;20.87;;;11.40;;
14526;SDS011;7350;51.208;4.238;2022-12-18T11:18:28;20.83;;;12.07;;
14526;SDS011;7350;51.208;4.238;2022-12-18T11:20:58;18.63;;;11.00;;
14526;SDS011;7350;51.208;4.238;2022-12-18T11:23:32;17.60;;;10.80;;
14526;SDS011;7350;51.208;4.238;2022-12-18T11:26:00;19.80;;;12.30;;
14526;SDS011;7350;51.208;4.238;2022-12-18T11:28:37;18.87;;;10.93;;
14526;SDS011;7350;51.208;4.238;2022-12-18T11:31:11;18.47;;;11.83;;
14526;SDS011;7350;51.208;4.238;2022-12-18T11:34:02;18.83;;;12.50;;
14526;SDS011;7350;51.208;4.238;2022-12-18T11:36:36;22.93;;;14.07;;
14526;SDS011;7350;51.208;4.238;2022-12-18T11:39:10;19.63;;;13.07;;
14526;SDS011;7350;51.208;4.238;2022-12-18T11:41:46;22.97;;;13.77;;
14526;SDS011;7350;51.208;4.238;2022-12-18T11:44:38;20.83;;;12.87;;
14526;SDS011;7350;51.208;4.238;2022-12-18T11:47:13;19.17;;;11.80;;
14526;SDS011;7350;51.208;4.238;2022-12-18T11:49:47;16.07;;;10.80;;
14526;SDS011;7350;51.208;4.238;2022-12-18T11:52:16;17.20;;;11.27;;
14526;SDS011;7350;51.208;4.238;2022-12-18T11:54:50;20.03;;;11.10;;
14526;SDS011;7350;51.208;4.238;2022-12-18T11:57:23;15.30;;;9.07;;
14526;SDS011;7350;51.208;4.238;2022-12-18T12:00:01;16.77;;;11.03;;
14526;SDS011;7350;51.208;4.238;2022-12-18T12:02:38;18.07;;;11.53;;
14526;SDS011;7350;51.208;4.238;2022-12-18T12:05:28;18.10;;;11.47;;
14526;SDS011;7350;51.208;4.238;2022-12-18T12:08:09;19.87;;;11.43;;
14526;SDS011;7350;51.208;4.238;2022-12-18T12:10:45;15.57;;;11.30;;
14526;SDS011;7350;51.208;4.238;2022-12-18T12:13:25;18.67;;;11.97;;
14526;SDS011;7350;51.208;4.238;2022-12-18T12:16:06;19.67;;;12.23;;
14526;SDS011;7350;51.208;4.238;2022-12-18T12:18:46;18.73;;;11.73;;
14526;SDS011;7350;51.208;4.238;2022-12-18T12:21:34;17.87;;;10.93;;
14526;SDS011;7350;51.208;4.238;2022-12-18T12:24:08;18.93;;;11.90;;
14526;SDS011;7350;51.208;4.238;2022-12-18T12:26:45;19.50;;;12.27;;
14526;SDS011;7350;51.208;4.238;2022-12-18T12:29:23;19.20;;;11.87;;
14526;SDS011;7350;51.208;4.238;2022-12-18T12:32:08;20.73;;;11.90;;
14526;SDS011;7350;51.208;4.238;2022-12-18T12:34:49;20.67;;;12.43;;
14526;SDS011;7350;51.208;4.238;2022-12-18T12:37:25;19.30;;;11.67;;
14526;SDS011;7350;51.208;4.238;2022-12-18T12:40:03;18.90;;;12.30;;
14526;SDS011;7350;51.208;4.238;2022-12-18T12:42:32;17.40;;;12.30;;
14526;SDS011;7350;51.208;4.238;2022-12-18T12:45:22;18.20;;;10.67;;
14526;SDS011;7350;51.208;4.238;2022-12-18T12:48:02;20.83;;;11.60;;
14526;SDS011;7350;51.208;4.238;2022-12-18T12:50:37;20.20;;;11.50;;
14526;SDS011;7350;51.208;4.238;2022-12-18T12:53:06;18.73;;;12.07;;
14526;SDS011;7350;51.208;4.238;2022-12-18T12:55:35;16.93;;;11.50;;
14526;SDS011;7350;51.208;4.238;2022-12-18T12:58:05;17.73;;;11.00;;
14526;SDS011;7350;51.208;4.238;2022-12-18T13:00:41;16.60;;;11.60;;
14526;SDS011;7350;51.208;4.238;2022-12-18T13:03:19;21.03;;;12.30;;
14526;SDS011;7350;51.208;4.238;2022-12-18T13:05:56;18.17;;;12.17;;
14526;SDS011;7350;51.208;4.238;2022-12-18T13:08:26;20.27;;;12.87;;
14526;SDS011;7350;51.208;4.238;2022-12-18T13:10:55;19.77;;;12.87;;
14526;SDS011;7350;51.208;4.238;2022-12-18T13:13:50;18.60;;;11.83;;
14526;SDS011;7350;51.208;4.238;2022-12-18T13:16:20;18.23;;;12.37;;
14526;SDS011;7350;51.208;4.238;2022-12-18T13:18:49;19.07;;;12.27;;
14526;SDS011;7350;51.208;4.238;2022-12-18T13:21:20;18.77;;;11.97;;
14526;SDS011;7350;51.208;4.238;2022-12-18T13:23:49;19.87;;;12.40;;
14526;SDS011;7350;51.208;4.238;2022-12-18T13:26:30;21.43;;;13.67;;
14526;SDS011;7350;51.208;4.238;2022-12-18T13:28:59;19.00;;;12.90;;
14526;SDS011;7350;51.208;4.238;2022-12-18T13:34:42;20.27;;;12.87;;
14526;SDS011;7350;51.208;4.238;2022-12-18T13:43:22;23.67;;;14.80;;
14526;SDS011;7350;51.208;4.238;2022-12-18T13:46:17;19.60;;;12.87;;
14526;SDS011;7350;51.208;4.238;2022-12-18T13:49:00;22.17;;;14.07;;
14526;SDS011;7350;51.208;4.238;2022-12-18T13:51:31;21.23;;;13.97;;
14526;SDS011;7350;51.208;4.238;2022-12-18T13:54:01;21.73;;;12.97;;
14526;SDS011;7350;51.208;4.238;2022-12-18T13:56:32;22.57;;;13.87;;
14526;SDS011;7350;51.208;4.238;2022-12-18T13:59:03;20.17;;;13.77;;
14526;SDS011;7350;51.208;4.238;2022-12-18T14:01:41;23.00;;;15.00;;
14526;SDS011;7350;51.208;4.238;2022-12-18T14:04:09;19.77;;;13.97;;
14526;SDS011;7350;51.208;4.238;2022-12-18T14:06:38;24.10;;;14.40;;
14526;SDS011;7350;51.208;4.238;2022-12-18T14:09:08;21.43;;;14.27;;
14526;SDS011;7350;51.208;4.238;2022-12-18T14:11:39;23.63;;;15.10;;
14526;SDS011;7350;51.208;4.238;2022-12-18T14:14:07;22.80;;;14.50;;
14526;SDS011;7350;51.208;4.238;2022-12-18T14:16:34;21.43;;;13.83;;
14526;SDS011;7350;51.208;4.238;2022-12-18T14:19:02;23.67;;;14.97;;
14526;SDS011;7350;51.208;4.238;2022-12-18T14:21:29;23.17;;;14.67;;
14526;SDS011;7350;51.208;4.238;2022-12-18T14:24:12;22.50;;;13.93;;
14526;SDS011;7350;51.208;4.238;2022-12-18T14:26:41;23.77;;;15.17;;
14526;SDS011;7350;51.208;4.238;2022-12-18T14:29:19;24.27;;;14.20;;
14526;SDS011;7350;51.208;4.238;2022-12-18T14:34:30;22.30;;;14.17;;
14526;SDS011;7350;51.208;4.238;2022-12-18T14:36:57;21.03;;;14.27;;
14526;SDS011;7350;51.208;4.238;2022-12-18T14:39:26;21.27;;;14.70;;
14526;SDS011;7350;51.208;4.238;2022-12-18T14:41:53;24.03;;;14.63;;
14526;SDS011;7350;51.208;4.238;2022-12-18T14:44:20;25.53;;;16.57;;
14526;SDS011;7350;51.208;4.238;2022-12-18T14:46:47;24.03;;;15.27;;
14526;SDS011;7350;51.208;4.238;2022-12-18T14:49:20;24.67;;;15.03;;
14526;SDS011;7350;51.208;4.238;2022-12-18T14:51:52;21.40;;;13.70;;
14526;SDS011;7350;51.208;4.238;2022-12-18T14:54:20;23.40;;;14.33;;
14526;SDS011;7350;51.208;4.238;2022-12-18T14:56:51;24.40;;;15.90;;
14526;SDS011;7350;51.208;4.238;2022-12-18T14:59:26;25.67;;;14.60;;
14526;SDS011;7350;51.208;4.238;2022-12-18T15:01:58;25.73;;;15.23;;
14526;SDS011;7350;51.208;4.238;2022-12-18T15:04:31;27.67;;;16.67;;
14526;SDS011;7350;51.208;4.238;2022-12-18T15:07:04;27.73;;;15.23;;
14526;SDS011;7350;51.208;4.238;2022-12-18T15:09:36;25.10;;;14.77;;
14526;SDS011;7350;51.208;4.238;2022-12-18T15:12:05;25.73;;;15.90;;